sensor_id;sensor_type;location;lat;lon;timestamp;P1;durP1;ratioP1;P2;durP2;ratioP2
72891;SDS011;61032;50.782;6.818;2023-02-28T00:00:59;4.85;;;2.50;;
72891;SDS011;61032;50.782;6.818;2023-02-28T00:01:59;3.03;;;1.80;;
72891;SDS011;61032;50.782;6.818;2023-02-28T00:03:00;3.28;;;2.40;;
72891;SDS011;61032;50.782;6.818;2023-02-28T00:04:00;3.88;;;2.33;;
72891;SDS011;61032;50.782;6.818;2023-02-28T00:05:01;3.08;;;2.08;;
72891;SDS011;61032;50.782;6.818;2023-02-28T00:06:04;3.00;;;2.15;;
72891;SDS011;61032;50.782;6.818;2023-02-28T00:07:05;2.30;;;1.80;;
72891;SDS011;61032;50.782;6.818;2023-02-28T00:08:05;4.68;;;1.92;;
72891;SDS011;61032;50.782;6.818;2023-02-28T00:09:06;3.50;;;1.88;;
72891;SDS011;61032;50.782;6.818;2023-02-28T00:10:06;2.65;;;2.00;;
72891;SDS011;61032;50.782;6.818;2023-02-28T00:11:09;2.45;;;1.50;;
72891;SDS011;61032;50.782;6.818;2023-02-28T00:12:11;4.55;;;1.80;;
72891;SDS011;61032;50.782;6.818;2023-02-28T00:13:12;3.70;;;1.55;;
72891;SDS011;61032;50.782;6.818;2023-02-28T00:14:13;2.72;;;1.88;;
72891;SDS011;61032;50.782;6.818;2023-02-28T00:15:13;3.28;;;2.25;;
72891;SDS011;61032;50.782;6.818;2023-02-28T00:16:15;4.07;;;2.20;;
72891;SDS011;61032;50.782;6.818;2023-02-28T00:17:19;3.67;;;1.90;;
72891;SDS011;61032;50.782;6.818;2023-02-28T00:18:21;5.45;;;2.25;;
72891;SDS011;61032;50.782;6.818;2023-02-28T00:19:22;4.75;;;2.42;;
72891;SDS011;61032;50.782;6.818;2023-02-28T00:20:22;4.40;;;2.10;;
72891;SDS011;61032;50.782;6.818;2023-02-28T00:21:22;4.97;;;2.67;;
72891;SDS011;61032;50.782;6.818;2023-02-28T00:22:24;3.72;;;2.17;;
72891;SDS011;61032;50.782;6.818;2023-02-28T00:23:24;3.55;;;2.33;;
72891;SDS011;61032;50.782;6.818;2023-02-28T00:24:25;4.93;;;2.17;;
72891;SDS011;61032;50.782;6.818;2023-02-28T00:25:26;2.80;;;2.20;;
72891;SDS011;61032;50.782;6.818;2023-02-28T00:26:26;3.88;;;2.10;;
72891;SDS011;61032;50.782;6.818;2023-02-28T00:27:26;3.92;;;2.38;;
72891;SDS011;61032;50.782;6.818;2023-02-28T00:28:30;3.17;;;2.20;;
72891;SDS011;61032;50.782;6.818;2023-02-28T00:29:30;4.50;;;2.22;;
72891;SDS011;61032;50.782;6.818;2023-02-28T00:30:31;4.18;;;2.13;;
72891;SDS011;61032;50.782;6.818;2023-02-28T00:31:31;5.13;;;2.20;;
72891;SDS011;61032;50.782;6.818;2023-02-28T00:32:31;3.55;;;1.75;;
72891;SDS011;61032;50.782;6.818;2023-02-28T00:33:32;3.42;;;1.92;;
72891;SDS011;61032;50.782;6.818;2023-02-28T00:34:32;4.60;;;2.42;;
72891;SDS011;61032;50.782;6.818;2023-02-28T00:35:37;2.75;;;2.10;;
72891;SDS011;61032;50.782;6.818;2023-02-28T00:36:37;5.05;;;2.65;;
72891;SDS011;61032;50.782;6.818;2023-02-28T00:37:38;3.25;;;2.17;;
72891;SDS011;61032;50.782;6.818;2023-02-28T00:38:39;4.70;;;2.25;;
72891;SDS011;61032;50.782;6.818;2023-02-28T00:39:40;4.22;;;2.17;;
72891;SDS011;61032;50.782;6.818;2023-02-28T00:40:41;4.95;;;1.95;;
72891;SDS011;61032;50.782;6.818;2023-02-28T00:41:41;2.90;;;2.28;;
72891;SDS011;61032;50.782;6.818;2023-02-28T00:42:42;6.35;;;2.58;;
72891;SDS011;61032;50.782;6.818;2023-02-28T00:43:42;2.72;;;1.77;;
72891;SDS011;61032;50.782;6.818;2023-02-28T00:44:42;3.42;;;1.90;;
72891;SDS011;61032;50.782;6.818;2023-02-28T00:45:43;4.30;;;2.10;;
72891;SDS011;61032;50.782;6.818;2023-02-28T00:46:43;3.42;;;1.92;;
72891;SDS011;61032;50.782;6.818;2023-02-28T00:47:43;3.15;;;1.67;;
72891;SDS011;61032;50.782;6.818;2023-02-28T00:48:44;3.05;;;1.80;;
72891;SDS011;61032;50.782;6.818;2023-02-28T00:49:44;3.78;;;1.67;;
72891;SDS011;61032;50.782;6.818;2023-02-28T00:50:44;2.78;;;1.90;;
72891;SDS011;61032;50.782;6.818;2023-02-28T00:51:48;3.17;;;2.00;;
72891;SDS011;61032;50.782;6.818;2023-02-28T00:52:49;3.13;;;2.10;;
72891;SDS011;61032;50.782;6.818;2023-02-28T00:53:50;3.17;;;1.75;;
72891;SDS011;61032;50.782;6.818;2023-02-28T00:54:50;3.05;;;1.50;;
72891;SDS011;61032;50.782;6.818;2023-02-28T00:55:50;2.63;;;1.67;;
72891;SDS011;61032;50.782;6.818;2023-02-28T00:56:51;3.75;;;1.88;;
72891;SDS011;61032;50.782;6.818;2023-02-28T00:57:51;3.17;;;1.83;;
72891;SDS011;61032;50.782;6.818;2023-02-28T00:58:51;3.65;;;1.98;;
72891;SDS011;61032;50.782;6.818;2023-02-28T00:59:52;5.75;;;2.15;;
72891;SDS011;61032;50.782;6.818;2023-02-28T01:00:54;5.90;;;1.88;;
72891;SDS011;61032;50.782;6.818;2023-02-28T01:01:54;2.80;;;1.42;;
72891;SDS011;61032;50.782;6.818;2023-02-28T01:02:55;2.85;;;1.77;;
72891;SDS011;61032;50.782;6.818;2023-02-28T01:03:55;2.53;;;1.75;;
72891;SDS011;61032;50.782;6.818;2023-02-28T01:04:55;4.47;;;2.13;;
72891;SDS011;61032;50.782;6.818;2023-02-28T01:05:56;1.85;;;1.60;;
72891;SDS011;61032;50.782;6.818;2023-02-28T01:06:57;3.33;;;1.60;;
72891;SDS011;61032;50.782;6.818;2023-02-28T01:07:57;4.82;;;1.80;;
72891;SDS011;61032;50.782;6.818;2023-02-28T01:08:58;3.60;;;1.70;;
72891;SDS011;61032;50.782;6.818;2023-02-28T01:09:59;2.47;;;1.70;;
72891;SDS011;61032;50.782;6.818;2023-02-28T01:11:06;3.08;;;1.77;;
72891;SDS011;61032;50.782;6.818;2023-02-28T01:12:08;2.53;;;1.65;;
72891;SDS011;61032;50.782;6.818;2023-02-28T01:13:08;3.08;;;1.70;;
72891;SDS011;61032;50.782;6.818;2023-02-28T01:14:10;2.65;;;1.65;;
72891;SDS011;61032;50.782;6.818;2023-02-28T01:15:13;2.65;;;1.83;;
72891;SDS011;61032;50.782;6.818;2023-02-28T01:16:14;2.58;;;1.38;;
72891;SDS011;61032;50.782;6.818;2023-02-28T01:17:15;2.65;;;1.55;;
72891;SDS011;61032;50.782;6.818;2023-02-28T01:18:15;2.40;;;1.33;;
72891;SDS011;61032;50.782;6.818;2023-02-28T01:19:16;3.10;;;1.67;;
72891;SDS011;61032;50.782;6.818;2023-02-28T01:20:16;2.05;;;1.30;;
72891;SDS011;61032;50.782;6.818;2023-02-28T01:21:17;3.42;;;1.92;;
72891;SDS011;61032;50.782;6.818;2023-02-28T01:22:19;1.83;;;1.25;;
72891;SDS011;61032;50.782;6.818;2023-02-28T01:23:21;1.92;;;1.50;;
72891;SDS011;61032;50.782;6.818;2023-02-28T01:24:23;4.82;;;1.75;;
72891;SDS011;61032;50.782;6.818;2023-02-28T01:25:23;2.25;;;1.67;;
72891;SDS011;61032;50.782;6.818;2023-02-28T01:26:23;2.40;;;1.63;;
72891;SDS011;61032;50.782;6.818;2023-02-28T01:27:24;4.53;;;1.65;;
72891;SDS011;61032;50.782;6.818;2023-02-28T01:28:25;2.83;;;1.60;;
72891;SDS011;61032;50.782;6.818;2023-02-28T01:29:25;2.47;;;1.70;;
72891;SDS011;61032;50.782;6.818;2023-02-28T01:30:26;2.80;;;1.77;;
72891;SDS011;61032;50.782;6.818;2023-02-28T01:31:26;4.05;;;1.70;;
72891;SDS011;61032;50.782;6.818;2023-02-28T01:32:26;3.35;;;1.80;;
72891;SDS011;61032;50.782;6.818;2023-02-28T01:33:27;2.20;;;1.50;;
72891;SDS011;61032;50.782;6.818;2023-02-28T01:34:28;3.25;;;1.85;;
72891;SDS011;61032;50.782;6.818;2023-02-28T01:35:28;3.33;;;1.65;;
72891;SDS011;61032;50.782;6.818;2023-02-28T01:36:32;5.18;;;1.80;;
72891;SDS011;61032;50.782;6.818;2023-02-28T01:37:33;2.40;;;1.67;;
72891;SDS011;61032;50.782;6.818;2023-02-28T01:38:33;2.53;;;1.58;;
72891;SDS011;61032;50.782;6.818;2023-02-28T01:39:33;3.47;;;1.70;;
72891;SDS011;61032;50.782;6.818;2023-02-28T01:40:34;2.95;;;1.48;;
72891;SDS011;61032;50.782;6.818;2023-02-28T01:41:34;1.83;;;1.40;;
72891;SDS011;61032;50.782;6.818;2023-02-28T01:42:35;4.13;;;1.70;;
72891;SDS011;61032;50.782;6.818;2023-02-28T01:45:05;2.78;;;1.50;;
72891;SDS011;61032;50.782;6.818;2023-02-28T01:46:27;3.75;;;1.85;;
72891;SDS011;61032;50.782;6.818;2023-02-28T01:47:32;2.50;;;1.35;;
72891;SDS011;61032;50.782;6.818;2023-02-28T01:48:37;2.78;;;1.50;;
72891;SDS011;61032;50.782;6.818;2023-02-28T01:49:46;2.30;;;1.58;;
72891;SDS011;61032;50.782;6.818;2023-02-28T01:50:48;2.42;;;1.25;;
72891;SDS011;61032;50.782;6.818;2023-02-28T01:51:50;2.33;;;1.20;;
72891;SDS011;61032;50.782;6.818;2023-02-28T01:52:55;2.83;;;1.63;;
72891;SDS011;61032;50.782;6.818;2023-02-28T01:53:59;2.53;;;1.50;;
72891;SDS011;61032;50.782;6.818;2023-02-28T01:55:04;2.28;;;1.45;;
72891;SDS011;61032;50.782;6.818;2023-02-28T01:56:06;2.72;;;1.55;;
72891;SDS011;61032;50.782;6.818;2023-02-28T01:57:10;2.05;;;1.30;;
72891;SDS011;61032;50.782;6.818;2023-02-28T01:58:16;2.25;;;1.40;;
72891;SDS011;61032;50.782;6.818;2023-02-28T01:59:20;2.08;;;1.10;;
72891;SDS011;61032;50.782;6.818;2023-02-28T02:00:27;3.53;;;1.02;;
72891;SDS011;61032;50.782;6.818;2023-02-28T02:01:29;1.83;;;1.20;;
72891;SDS011;61032;50.782;6.818;2023-02-28T02:02:31;1.70;;;1.02;;
72891;SDS011;61032;50.782;6.818;2023-02-28T02:03:31;2.03;;;1.10;;
72891;SDS011;61032;50.782;6.818;2023-02-28T02:04:32;2.67;;;1.30;;
72891;SDS011;61032;50.782;6.818;2023-02-28T02:05:38;2.25;;;1.10;;
72891;SDS011;61032;50.782;6.818;2023-02-28T02:06:41;2.08;;;1.08;;
72891;SDS011;61032;50.782;6.818;2023-02-28T02:07:45;3.03;;;1.23;;
72891;SDS011;61032;50.782;6.818;2023-02-28T02:08:48;3.53;;;1.70;;
72891;SDS011;61032;50.782;6.818;2023-02-28T02:09:49;1.67;;;1.17;;
72891;SDS011;61032;50.782;6.818;2023-02-28T02:10:54;2.90;;;1.70;;
72891;SDS011;61032;50.782;6.818;2023-02-28T02:11:57;4.32;;;2.10;;
72891;SDS011;61032;50.782;6.818;2023-02-28T02:15:49;2.50;;;1.23;;
72891;SDS011;61032;50.782;6.818;2023-02-28T02:17:20;4.78;;;1.30;;
72891;SDS011;61032;50.782;6.818;2023-02-28T02:18:43;4.20;;;1.65;;
72891;SDS011;61032;50.782;6.818;2023-02-28T02:29:35;1.95;;;1.17;;
72891;SDS011;61032;50.782;6.818;2023-02-28T02:34:00;2.17;;;1.20;;
72891;SDS011;61032;50.782;6.818;2023-02-28T02:36:45;2.55;;;1.05;;
72891;SDS011;61032;50.782;6.818;2023-02-28T02:37:53;2.90;;;1.13;;
72891;SDS011;61032;50.782;6.818;2023-02-28T02:39:06;1.73;;;1.35;;
72891;SDS011;61032;50.782;6.818;2023-02-28T02:40:33;2.15;;;1.25;;
72891;SDS011;61032;50.782;6.818;2023-02-28T02:42:01;2.50;;;1.45;;
72891;SDS011;61032;50.782;6.818;2023-02-28T02:44:13;1.77;;;1.30;;
72891;SDS011;61032;50.782;6.818;2023-02-28T02:45:44;3.63;;;1.13;;
72891;SDS011;61032;50.782;6.818;2023-02-28T02:46:51;2.90;;;1.17;;
72891;SDS011;61032;50.782;6.818;2023-02-28T02:49:00;2.05;;;1.10;;
72891;SDS011;61032;50.782;6.818;2023-02-28T02:50:07;1.95;;;1.23;;
72891;SDS011;61032;50.782;6.818;2023-02-28T02:51:14;2.13;;;1.23;;
72891;SDS011;61032;50.782;6.818;2023-02-28T02:52:18;2.45;;;1.40;;
72891;SDS011;61032;50.782;6.818;2023-02-28T02:53:23;1.75;;;1.13;;
72891;SDS011;61032;50.782;6.818;2023-02-28T02:54:27;3.80;;;1.27;;
72891;SDS011;61032;50.782;6.818;2023-02-28T02:55:31;1.73;;;1.23;;
72891;SDS011;61032;50.782;6.818;2023-02-28T02:56:36;2.75;;;1.50;;
72891;SDS011;61032;50.782;6.818;2023-02-28T02:58:50;1.70;;;1.20;;
72891;SDS011;61032;50.782;6.818;2023-02-28T02:59:53;2.35;;;1.20;;
72891;SDS011;61032;50.782;6.818;2023-02-28T03:00:57;2.58;;;1.20;;
72891;SDS011;61032;50.782;6.818;2023-02-28T03:02:02;2.08;;;1.10;;
72891;SDS011;61032;50.782;6.818;2023-02-28T03:03:06;2.00;;;1.88;;
72891;SDS011;61032;50.782;6.818;2023-02-28T03:04:10;2.30;;;1.30;;
72891;SDS011;61032;50.782;6.818;2023-02-28T03:05:35;2.78;;;1.20;;
72891;SDS011;61032;50.782;6.818;2023-02-28T03:06:44;3.15;;;1.10;;
72891;SDS011;61032;50.782;6.818;2023-02-28T03:07:44;1.90;;;1.23;;
72891;SDS011;61032;50.782;6.818;2023-02-28T03:08:45;1.83;;;1.20;;
72891;SDS011;61032;50.782;6.818;2023-02-28T03:09:52;2.42;;;1.45;;
72891;SDS011;61032;50.782;6.818;2023-02-28T03:10:55;3.28;;;1.10;;
72891;SDS011;61032;50.782;6.818;2023-02-28T03:11:58;2.35;;;1.17;;
72891;SDS011;61032;50.782;6.818;2023-02-28T03:13:49;2.83;;;1.10;;
72891;SDS011;61032;50.782;6.818;2023-02-28T03:14:45;2.58;;;1.45;;
72891;SDS011;61032;50.782;6.818;2023-02-28T03:17:07;2.67;;;1.48;;
72891;SDS011;61032;50.782;6.818;2023-02-28T03:18:32;3.35;;;1.50;;
72891;SDS011;61032;50.782;6.818;2023-02-28T03:19:46;2.08;;;1.30;;
72891;SDS011;61032;50.782;6.818;2023-02-28T03:20:59;2.65;;;1.27;;
72891;SDS011;61032;50.782;6.818;2023-02-28T03:25:02;1.70;;;1.20;;
72891;SDS011;61032;50.782;6.818;2023-02-28T03:26:11;2.75;;;1.60;;
72891;SDS011;61032;50.782;6.818;2023-02-28T03:27:27;2.63;;;1.77;;
72891;SDS011;61032;50.782;6.818;2023-02-28T03:29:58;6.93;;;1.77;;
72891;SDS011;61032;50.782;6.818;2023-02-28T03:31:21;2.80;;;1.38;;
72891;SDS011;61032;50.782;6.818;2023-02-28T03:32:24;3.05;;;1.45;;
72891;SDS011;61032;50.782;6.818;2023-02-28T03:34:14;3.08;;;2.17;;
72891;SDS011;61032;50.782;6.818;2023-02-28T03:35:13;9.68;;;2.13;;
72891;SDS011;61032;50.782;6.818;2023-02-28T03:36:23;2.55;;;1.73;;
72891;SDS011;61032;50.782;6.818;2023-02-28T03:37:27;3.65;;;2.00;;
72891;SDS011;61032;50.782;6.818;2023-02-28T03:38:31;2.50;;;1.70;;
72891;SDS011;61032;50.782;6.818;2023-02-28T03:39:42;2.88;;;1.70;;
72891;SDS011;61032;50.782;6.818;2023-02-28T03:40:51;1.98;;;1.55;;
72891;SDS011;61032;50.782;6.818;2023-02-28T03:41:59;3.05;;;2.13;;
72891;SDS011;61032;50.782;6.818;2023-02-28T03:43:07;3.03;;;1.73;;
72891;SDS011;61032;50.782;6.818;2023-02-28T03:44:17;3.30;;;1.65;;
72891;SDS011;61032;50.782;6.818;2023-02-28T03:45:24;2.72;;;1.80;;
72891;SDS011;61032;50.782;6.818;2023-02-28T03:46:28;2.63;;;1.70;;
72891;SDS011;61032;50.782;6.818;2023-02-28T03:47:37;1.75;;;1.40;;
72891;SDS011;61032;50.782;6.818;2023-02-28T03:48:51;2.15;;;1.55;;
72891;SDS011;61032;50.782;6.818;2023-02-28T03:50:10;2.80;;;1.75;;
72891;SDS011;61032;50.782;6.818;2023-02-28T03:51:16;3.55;;;1.95;;
72891;SDS011;61032;50.782;6.818;2023-02-28T03:52:21;2.38;;;1.58;;
72891;SDS011;61032;50.782;6.818;2023-02-28T03:53:37;2.78;;;1.48;;
72891;SDS011;61032;50.782;6.818;2023-02-28T03:54:44;2.53;;;1.98;;
72891;SDS011;61032;50.782;6.818;2023-02-28T03:56:01;3.20;;;1.90;;
72891;SDS011;61032;50.782;6.818;2023-02-28T03:57:12;3.42;;;1.73;;
72891;SDS011;61032;50.782;6.818;2023-02-28T03:58:21;5.60;;;2.05;;
72891;SDS011;61032;50.782;6.818;2023-02-28T03:59:32;4.18;;;2.65;;
72891;SDS011;61032;50.782;6.818;2023-02-28T04:00:44;3.30;;;1.98;;
72891;SDS011;61032;50.782;6.818;2023-02-28T04:01:48;2.42;;;1.60;;
72891;SDS011;61032;50.782;6.818;2023-02-28T04:02:49;2.72;;;1.80;;
72891;SDS011;61032;50.782;6.818;2023-02-28T04:03:52;4.32;;;2.10;;
72891;SDS011;61032;50.782;6.818;2023-02-28T04:04:53;4.10;;;1.88;;
72891;SDS011;61032;50.782;6.818;2023-02-28T04:05:54;3.25;;;1.52;;
72891;SDS011;61032;50.782;6.818;2023-02-28T04:07:03;3.67;;;1.50;;
72891;SDS011;61032;50.782;6.818;2023-02-28T04:08:06;2.35;;;1.70;;
72891;SDS011;61032;50.782;6.818;2023-02-28T04:09:08;1.92;;;1.55;;
72891;SDS011;61032;50.782;6.818;2023-02-28T04:10:11;1.90;;;1.50;;
72891;SDS011;61032;50.782;6.818;2023-02-28T04:11:18;3.67;;;1.75;;
72891;SDS011;61032;50.782;6.818;2023-02-28T04:12:18;3.03;;;1.38;;
72891;SDS011;61032;50.782;6.818;2023-02-28T04:13:19;2.92;;;1.70;;
72891;SDS011;61032;50.782;6.818;2023-02-28T04:14:19;3.38;;;1.60;;
72891;SDS011;61032;50.782;6.818;2023-02-28T04:15:19;2.28;;;1.27;;
72891;SDS011;61032;50.782;6.818;2023-02-28T04:16:22;2.75;;;1.75;;
72891;SDS011;61032;50.782;6.818;2023-02-28T04:17:23;2.72;;;1.40;;
72891;SDS011;61032;50.782;6.818;2023-02-28T04:18:23;2.35;;;1.60;;
72891;SDS011;61032;50.782;6.818;2023-02-28T04:19:23;3.33;;;1.80;;
72891;SDS011;61032;50.782;6.818;2023-02-28T04:20:24;4.00;;;1.42;;
72891;SDS011;61032;50.782;6.818;2023-02-28T04:21:24;2.70;;;1.50;;
72891;SDS011;61032;50.782;6.818;2023-02-28T04:22:24;2.35;;;1.45;;
72891;SDS011;61032;50.782;6.818;2023-02-28T04:23:26;1.42;;;1.10;;
72891;SDS011;61032;50.782;6.818;2023-02-28T04:24:27;3.30;;;1.83;;
72891;SDS011;61032;50.782;6.818;2023-02-28T04:25:27;4.88;;;1.50;;
72891;SDS011;61032;50.782;6.818;2023-02-28T04:26:28;3.08;;;1.60;;
72891;SDS011;61032;50.782;6.818;2023-02-28T04:27:30;1.90;;;1.60;;
72891;SDS011;61032;50.782;6.818;2023-02-28T04:28:30;2.58;;;1.80;;
72891;SDS011;61032;50.782;6.818;2023-02-28T04:29:31;2.58;;;1.65;;
72891;SDS011;61032;50.782;6.818;2023-02-28T04:30:34;3.80;;;1.73;;
72891;SDS011;61032;50.782;6.818;2023-02-28T04:31:34;3.63;;;1.60;;
72891;SDS011;61032;50.782;6.818;2023-02-28T04:32:34;2.80;;;1.70;;
72891;SDS011;61032;50.782;6.818;2023-02-28T04:33:35;3.20;;;1.40;;
72891;SDS011;61032;50.782;6.818;2023-02-28T04:34:35;2.35;;;1.42;;
72891;SDS011;61032;50.782;6.818;2023-02-28T04:35:35;3.92;;;1.60;;
72891;SDS011;61032;50.782;6.818;2023-02-28T04:36:36;3.75;;;1.73;;
72891;SDS011;61032;50.782;6.818;2023-02-28T04:37:36;2.40;;;1.40;;
72891;SDS011;61032;50.782;6.818;2023-02-28T04:38:37;2.65;;;1.33;;
72891;SDS011;61032;50.782;6.818;2023-02-28T04:40:39;2.78;;;1.30;;
72891;SDS011;61032;50.782;6.818;2023-02-28T04:41:40;3.67;;;1.70;;
72891;SDS011;61032;50.782;6.818;2023-02-28T04:42:40;2.33;;;1.63;;
72891;SDS011;61032;50.782;6.818;2023-02-28T04:43:40;3.42;;;1.33;;
72891;SDS011;61032;50.782;6.818;2023-02-28T04:44:41;3.25;;;1.85;;
72891;SDS011;61032;50.782;6.818;2023-02-28T04:45:41;2.20;;;1.50;;
72891;SDS011;61032;50.782;6.818;2023-02-28T04:46:41;2.25;;;1.30;;
72891;SDS011;61032;50.782;6.818;2023-02-28T04:47:43;1.75;;;1.52;;
72891;SDS011;61032;50.782;6.818;2023-02-28T04:48:43;1.48;;;1.30;;
72891;SDS011;61032;50.782;6.818;2023-02-28T04:49:44;2.05;;;1.40;;
72891;SDS011;61032;50.782;6.818;2023-02-28T04:50:44;3.88;;;2.17;;
72891;SDS011;61032;50.782;6.818;2023-02-28T04:51:44;2.53;;;1.88;;
72891;SDS011;61032;50.782;6.818;2023-02-28T04:52:45;2.35;;;1.52;;
72891;SDS011;61032;50.782;6.818;2023-02-28T04:53:45;2.35;;;1.83;;
72891;SDS011;61032;50.782;6.818;2023-02-28T04:54:46;4.32;;;1.80;;
72891;SDS011;61032;50.782;6.818;2023-02-28T04:55:47;2.47;;;1.45;;
72891;SDS011;61032;50.782;6.818;2023-02-28T04:56:47;1.38;;;1.20;;
72891;SDS011;61032;50.782;6.818;2023-02-28T04:58:49;2.90;;;1.60;;
72891;SDS011;61032;50.782;6.818;2023-02-28T04:59:51;2.00;;;1.33;;
72891;SDS011;61032;50.782;6.818;2023-02-28T05:00:52;2.92;;;1.50;;
72891;SDS011;61032;50.782;6.818;2023-02-28T05:01:53;1.92;;;1.73;;
72891;SDS011;61032;50.782;6.818;2023-02-28T05:02:53;3.13;;;1.85;;
72891;SDS011;61032;50.782;6.818;2023-02-28T05:03:54;3.47;;;1.48;;
72891;SDS011;61032;50.782;6.818;2023-02-28T05:04:56;2.85;;;1.90;;
72891;SDS011;61032;50.782;6.818;2023-02-28T05:05:56;3.55;;;2.25;;
72891;SDS011;61032;50.782;6.818;2023-02-28T05:06:57;2.70;;;2.20;;
72891;SDS011;61032;50.782;6.818;2023-02-28T05:08:00;2.45;;;1.52;;
72891;SDS011;61032;50.782;6.818;2023-02-28T05:09:00;2.10;;;1.40;;
72891;SDS011;61032;50.782;6.818;2023-02-28T05:10:01;2.60;;;1.70;;
72891;SDS011;61032;50.782;6.818;2023-02-28T05:11:01;3.95;;;1.52;;
72891;SDS011;61032;50.782;6.818;2023-02-28T05:12:02;2.28;;;1.50;;
72891;SDS011;61032;50.782;6.818;2023-02-28T05:13:03;3.20;;;1.35;;
72891;SDS011;61032;50.782;6.818;2023-02-28T05:14:05;1.95;;;1.42;;
72891;SDS011;61032;50.782;6.818;2023-02-28T05:15:08;2.20;;;1.45;;
72891;SDS011;61032;50.782;6.818;2023-02-28T05:16:13;2.13;;;1.38;;
72891;SDS011;61032;50.782;6.818;2023-02-28T05:17:14;2.17;;;1.38;;
72891;SDS011;61032;50.782;6.818;2023-02-28T05:18:15;4.95;;;1.60;;
72891;SDS011;61032;50.782;6.818;2023-02-28T05:19:15;1.95;;;1.58;;
72891;SDS011;61032;50.782;6.818;2023-02-28T05:20:15;2.38;;;1.50;;
72891;SDS011;61032;50.782;6.818;2023-02-28T05:21:27;2.33;;;1.52;;
72891;SDS011;61032;50.782;6.818;2023-02-28T05:22:38;2.42;;;1.23;;
72891;SDS011;61032;50.782;6.818;2023-02-28T05:23:40;1.75;;;1.23;;
72891;SDS011;61032;50.782;6.818;2023-02-28T05:24:40;2.50;;;1.25;;
72891;SDS011;61032;50.782;6.818;2023-02-28T05:25:42;2.80;;;1.40;;
72891;SDS011;61032;50.782;6.818;2023-02-28T05:26:42;2.10;;;1.50;;
72891;SDS011;61032;50.782;6.818;2023-02-28T05:27:43;2.97;;;1.50;;
72891;SDS011;61032;50.782;6.818;2023-02-28T05:28:43;2.53;;;1.30;;
72891;SDS011;61032;50.782;6.818;2023-02-28T05:29:43;2.20;;;1.20;;
72891;SDS011;61032;50.782;6.818;2023-02-28T05:30:44;1.65;;;1.13;;
72891;SDS011;61032;50.782;6.818;2023-02-28T05:31:44;2.22;;;1.58;;
72891;SDS011;61032;50.782;6.818;2023-02-28T05:32:49;2.15;;;1.58;;
72891;SDS011;61032;50.782;6.818;2023-02-28T05:33:50;2.85;;;1.67;;
72891;SDS011;61032;50.782;6.818;2023-02-28T05:34:51;2.70;;;1.23;;
72891;SDS011;61032;50.782;6.818;2023-02-28T05:35:51;2.60;;;1.60;;
72891;SDS011;61032;50.782;6.818;2023-02-28T05:36:52;3.58;;;1.65;;
72891;SDS011;61032;50.782;6.818;2023-02-28T05:37:52;2.38;;;1.52;;
72891;SDS011;61032;50.782;6.818;2023-02-28T05:38:52;2.28;;;1.40;;
72891;SDS011;61032;50.782;6.818;2023-02-28T05:39:53;2.28;;;1.30;;
72891;SDS011;61032;50.782;6.818;2023-02-28T05:40:53;2.35;;;1.55;;
72891;SDS011;61032;50.782;6.818;2023-02-28T05:41:53;2.83;;;1.50;;
72891;SDS011;61032;50.782;6.818;2023-02-28T05:42:53;1.77;;;1.35;;
72891;SDS011;61032;50.782;6.818;2023-02-28T05:43:54;2.40;;;1.58;;
72891;SDS011;61032;50.782;6.818;2023-02-28T05:44:54;1.50;;;1.33;;
72891;SDS011;61032;50.782;6.818;2023-02-28T05:45:55;1.40;;;1.25;;
72891;SDS011;61032;50.782;6.818;2023-02-28T05:46:55;1.90;;;1.20;;
72891;SDS011;61032;50.782;6.818;2023-02-28T05:47:55;3.90;;;1.55;;
72891;SDS011;61032;50.782;6.818;2023-02-28T05:48:56;3.30;;;1.30;;
72891;SDS011;61032;50.782;6.818;2023-02-28T05:49:57;2.40;;;1.73;;
72891;SDS011;61032;50.782;6.818;2023-02-28T05:50:58;1.45;;;1.30;;
72891;SDS011;61032;50.782;6.818;2023-02-28T05:51:58;4.60;;;1.60;;
72891;SDS011;61032;50.782;6.818;2023-02-28T05:52:58;2.20;;;1.65;;
72891;SDS011;61032;50.782;6.818;2023-02-28T05:53:59;2.08;;;1.80;;
72891;SDS011;61032;50.782;6.818;2023-02-28T05:55:00;3.42;;;1.73;;
72891;SDS011;61032;50.782;6.818;2023-02-28T05:56:01;3.00;;;2.30;;
72891;SDS011;61032;50.782;6.818;2023-02-28T05:57:01;3.63;;;2.05;;
72891;SDS011;61032;50.782;6.818;2023-02-28T05:58:01;3.10;;;1.98;;
72891;SDS011;61032;50.782;6.818;2023-02-28T05:59:02;2.33;;;1.60;;
72891;SDS011;61032;50.782;6.818;2023-02-28T06:00:02;2.80;;;2.55;;
72891;SDS011;61032;50.782;6.818;2023-02-28T06:01:20;2.17;;;2.00;;
72891;SDS011;61032;50.782;6.818;2023-02-28T06:02:30;2.65;;;1.67;;
72891;SDS011;61032;50.782;6.818;2023-02-28T06:03:30;3.97;;;2.65;;
72891;SDS011;61032;50.782;6.818;2023-02-28T06:04:30;4.32;;;2.72;;
72891;SDS011;61032;50.782;6.818;2023-02-28T06:05:31;4.13;;;3.20;;
72891;SDS011;61032;50.782;6.818;2023-02-28T06:06:31;6.30;;;5.70;;
72891;SDS011;61032;50.782;6.818;2023-02-28T06:07:34;3.80;;;2.65;;
72891;SDS011;61032;50.782;6.818;2023-02-28T06:08:34;4.22;;;2.72;;
72891;SDS011;61032;50.782;6.818;2023-02-28T06:09:34;3.78;;;2.08;;
72891;SDS011;61032;50.782;6.818;2023-02-28T06:10:35;3.33;;;2.55;;
72891;SDS011;61032;50.782;6.818;2023-02-28T06:11:35;2.65;;;2.10;;
72891;SDS011;61032;50.782;6.818;2023-02-28T06:12:36;2.42;;;1.95;;
72891;SDS011;61032;50.782;6.818;2023-02-28T06:13:37;3.63;;;2.88;;
72891;SDS011;61032;50.782;6.818;2023-02-28T06:14:37;2.88;;;2.08;;
72891;SDS011;61032;50.782;6.818;2023-02-28T06:15:38;4.55;;;3.03;;
72891;SDS011;61032;50.782;6.818;2023-02-28T06:16:38;3.38;;;3.00;;
72891;SDS011;61032;50.782;6.818;2023-02-28T06:17:38;3.25;;;2.65;;
72891;SDS011;61032;50.782;6.818;2023-02-28T06:18:39;5.15;;;3.88;;
72891;SDS011;61032;50.782;6.818;2023-02-28T06:19:40;8.77;;;5.28;;
72891;SDS011;61032;50.782;6.818;2023-02-28T06:20:41;5.57;;;4.15;;
72891;SDS011;61032;50.782;6.818;2023-02-28T06:21:42;4.85;;;2.72;;
72891;SDS011;61032;50.782;6.818;2023-02-28T06:22:43;2.53;;;1.80;;
72891;SDS011;61032;50.782;6.818;2023-02-28T06:23:43;3.42;;;1.98;;
72891;SDS011;61032;50.782;6.818;2023-02-28T06:24:44;3.65;;;1.80;;
72891;SDS011;61032;50.782;6.818;2023-02-28T06:25:45;1.70;;;1.30;;
72891;SDS011;61032;50.782;6.818;2023-02-28T06:26:46;1.88;;;1.55;;
72891;SDS011;61032;50.782;6.818;2023-02-28T06:27:46;2.15;;;1.70;;
72891;SDS011;61032;50.782;6.818;2023-02-28T06:28:46;2.22;;;1.58;;
72891;SDS011;61032;50.782;6.818;2023-02-28T06:29:47;3.28;;;1.73;;
72891;SDS011;61032;50.782;6.818;2023-02-28T06:30:47;6.05;;;2.17;;
72891;SDS011;61032;50.782;6.818;2023-02-28T06:31:48;3.17;;;2.47;;
72891;SDS011;61032;50.782;6.818;2023-02-28T06:32:48;2.17;;;1.50;;
72891;SDS011;61032;50.782;6.818;2023-02-28T06:33:49;2.65;;;1.63;;
72891;SDS011;61032;50.782;6.818;2023-02-28T06:34:50;2.10;;;1.60;;
72891;SDS011;61032;50.782;6.818;2023-02-28T06:35:50;3.88;;;2.30;;
72891;SDS011;61032;50.782;6.818;2023-02-28T06:36:51;3.88;;;1.77;;
72891;SDS011;61032;50.782;6.818;2023-02-28T06:37:52;2.60;;;1.70;;
72891;SDS011;61032;50.782;6.818;2023-02-28T06:38:52;2.28;;;1.70;;
72891;SDS011;61032;50.782;6.818;2023-02-28T06:39:55;2.63;;;1.50;;
72891;SDS011;61032;50.782;6.818;2023-02-28T06:40:56;2.97;;;2.35;;
72891;SDS011;61032;50.782;6.818;2023-02-28T06:41:58;1.80;;;1.30;;
72891;SDS011;61032;50.782;6.818;2023-02-28T06:42:58;2.83;;;1.70;;
72891;SDS011;61032;50.782;6.818;2023-02-28T06:43:59;3.65;;;2.05;;
72891;SDS011;61032;50.782;6.818;2023-02-28T06:44:59;2.60;;;1.55;;
72891;SDS011;61032;50.782;6.818;2023-02-28T06:46:00;2.42;;;1.30;;
72891;SDS011;61032;50.782;6.818;2023-02-28T06:47:03;3.22;;;1.45;;
72891;SDS011;61032;50.782;6.818;2023-02-28T06:48:04;3.83;;;1.90;;
72891;SDS011;61032;50.782;6.818;2023-02-28T06:49:05;2.70;;;1.60;;
72891;SDS011;61032;50.782;6.818;2023-02-28T06:50:09;3.25;;;1.70;;
72891;SDS011;61032;50.782;6.818;2023-02-28T06:51:12;3.72;;;1.67;;